createdAt,value
2022-08-24T00:01:06.518Z,37.98
2022-08-24T00:03:34.994Z,38.56
2022-08-24T00:06:02.701Z,41.10
2022-08-24T00:08:30.204Z,39.01
2022-08-24T00:10:57.530Z,38.67
2022-08-24T00:13:27.153Z,39.51
2022-08-24T00:15:59.726Z,41.39
2022-08-24T00:18:27.906Z,37.91
2022-08-24T00:20:55.487Z,37.45
2022-08-24T00:23:22.860Z,37.94
2022-08-24T00:25:50.391Z,39.01
2022-08-24T00:28:17.688Z,37.99
2022-08-24T00:30:45.019Z,38.61
2022-08-24T00:33:12.493Z,37.68
2022-08-24T00:35:39.950Z,39.17
2022-08-24T00:38:07.266Z,37.70
2022-08-24T00:40:37.621Z,37.79
2022-08-24T00:43:06.332Z,38.19
2022-08-24T00:45:46.385Z,40.52
2022-08-24T00:48:17.578Z,38.34
2022-08-24T00:50:45.584Z,38.15
2022-08-24T00:53:29.194Z,40.17
2022-08-24T00:55:58.031Z,38.27
2022-08-24T00:58:31.774Z,38.92
2022-08-24T01:01:00.893Z,41.43
2022-08-24T01:03:28.283Z,42.57
2022-08-24T01:05:56.599Z,45.49
2022-08-24T01:08:24.025Z,43.13
2022-08-24T01:10:54.193Z,42.25
2022-08-24T01:13:22.259Z,44.01
2022-08-24T01:15:50.386Z,45.84
2022-08-24T01:18:42.227Z,44.54
2022-08-24T01:21:42.097Z,41.35
2022-08-24T01:24:11.915Z,43.92
2022-08-24T01:26:45.687Z,45.32
2022-08-24T01:29:16.709Z,43.85
2022-08-24T01:31:44.219Z,42.89
2022-08-24T01:34:13.326Z,44.92
2022-08-24T01:37:00.392Z,44.41
2022-08-24T01:39:42.542Z,45.16
2022-08-24T01:42:10.275Z,43.04
2022-08-24T01:44:38.894Z,40.00
2022-08-24T01:47:07.679Z,40.54
2022-08-24T01:49:37.048Z,42.19
2022-08-24T01:52:06.553Z,41.60
2022-08-24T01:54:34.370Z,41.66
2022-08-24T01:57:01.904Z,49.94
2022-08-24T01:59:29.459Z,44.69
2022-08-24T02:01:59.366Z,41.31
2022-08-24T02:04:26.758Z,42.29
2022-08-24T02:06:54.318Z,45.41
2022-08-24T02:09:21.669Z,41.36
2022-08-24T02:11:48.957Z,44.74
2022-08-24T02:14:16.333Z,43.90
2022-08-24T02:16:43.654Z,43.72
2022-08-24T02:19:10.979Z,42.15
2022-08-24T02:21:38.866Z,41.80
2022-08-24T02:24:07.182Z,43.87
2022-08-24T02:26:34.741Z,43.21
2022-08-24T02:29:03.618Z,47.25
2022-08-24T02:31:31.351Z,42.42
2022-08-24T02:33:58.795Z,42.51
2022-08-24T02:36:26.731Z,42.93
2022-08-24T02:38:55.262Z,42.24
2022-08-24T02:41:24.763Z,44.07
2022-08-24T02:43:53.016Z,43.39
2022-08-24T02:46:22.340Z,45.23
2022-08-24T02:48:53.024Z,44.90
2022-08-24T02:51:44.268Z,44.37
2022-08-24T02:54:13.308Z,42.92
2022-08-24T02:56:40.825Z,44.48
2022-08-24T02:59:08.107Z,44.94
2022-08-24T03:01:36.290Z,45.87
2022-08-24T03:04:03.901Z,44.03
2022-08-24T03:06:31.454Z,43.04
2022-08-24T03:08:58.796Z,48.02
2022-08-24T03:11:28.280Z,45.09
2022-08-24T03:13:59.109Z,45.82
2022-08-24T03:16:27.811Z,44.07
2022-08-24T03:18:55.103Z,43.24
2022-08-24T03:21:22.342Z,46.22
2022-08-24T03:23:49.659Z,43.11
2022-08-24T03:26:17.020Z,42.67
2022-08-24T03:28:45.207Z,43.27
2022-08-24T03:31:12.803Z,43.31
2022-08-24T03:33:40.257Z,42.66
2022-08-24T03:36:11.205Z,42.00
2022-08-24T03:38:41.683Z,43.27
2022-08-24T03:41:09.635Z,42.58
2022-08-24T03:43:47.275Z,43.69
2022-08-24T03:46:20.496Z,42.42
2022-08-24T03:48:48.728Z,42.48
2022-08-24T03:51:18.928Z,42.04
2022-08-24T03:53:46.568Z,41.96
2022-08-24T03:56:14.003Z,42.67
2022-08-24T03:58:44.074Z,42.43
2022-08-24T04:01:11.511Z,41.83
2022-08-24T04:03:40.451Z,41.68
2022-08-24T04:06:08.385Z,42.76
2022-08-24T04:08:35.862Z,43.05
2022-08-24T04:11:04.525Z,43.26
2022-08-24T04:13:32.139Z,41.70
2022-08-24T04:16:05.032Z,41.37
2022-08-24T04:18:32.517Z,45.31
2022-08-24T04:20:59.809Z,43.00
2022-08-24T04:23:39.306Z,41.42
2022-08-24T04:26:15.598Z,41.81
2022-08-24T04:28:43.310Z,41.08
2022-08-24T04:31:10.590Z,41.45
2022-08-24T04:33:38.519Z,42.93
2022-08-24T04:36:09.405Z,43.19
2022-08-24T04:38:37.070Z,41.69
2022-08-24T04:41:07.369Z,42.66
2022-08-24T04:43:36.300Z,41.24
2022-08-24T04:46:07.252Z,40.51
2022-08-24T04:48:35.812Z,41.23
2022-08-24T04:51:04.610Z,41.69
2022-08-24T04:53:32.274Z,40.71
2022-08-24T04:55:59.849Z,42.11
2022-08-24T04:58:27.539Z,41.64
2022-08-24T05:00:55.022Z,40.48
2022-08-24T05:03:22.544Z,39.75
2022-08-24T05:05:50.882Z,40.06
2022-08-24T05:08:19.349Z,40.26
2022-08-24T05:10:48.963Z,40.31
2022-08-24T05:13:16.623Z,40.00
2022-08-24T05:15:45.432Z,39.05
2022-08-24T05:18:13.392Z,40.29
2022-08-24T05:20:45.331Z,39.88
2022-08-24T05:23:12.956Z,39.76
2022-08-24T05:25:40.549Z,39.85
2022-08-24T05:28:07.888Z,39.39
2022-08-24T05:30:37.373Z,40.28
2022-08-24T05:33:09.122Z,39.64
2022-08-24T05:35:40.457Z,39.66
2022-08-24T05:38:11.171Z,39.17
2022-08-24T05:40:38.565Z,37.96
2022-08-24T05:43:05.923Z,39.05
2022-08-24T05:45:33.258Z,38.54
2022-08-24T05:48:00.686Z,38.94
2022-08-24T05:50:28.078Z,38.75
2022-08-24T05:52:55.354Z,38.97
2022-08-24T05:55:22.771Z,39.37
2022-08-24T05:57:50.498Z,38.04
2022-08-24T06:00:18.143Z,38.45
2022-08-24T06:02:45.680Z,38.56
2022-08-24T06:05:14.131Z,38.52
2022-08-24T06:07:41.476Z,38.61
2022-08-24T06:10:35.497Z,37.32
2022-08-24T06:12:58.223Z,37.77
2022-08-24T06:15:26.153Z,37.36
2022-08-24T06:17:53.476Z,38.02
2022-08-24T06:20:20.862Z,37.85
2022-08-24T06:22:48.237Z,36.65
2022-08-24T06:25:34.152Z,37.89
2022-08-24T06:28:01.451Z,36.87
2022-08-24T06:30:30.644Z,38.07
2022-08-24T06:33:01.851Z,36.86
2022-08-24T06:35:29.487Z,35.31
2022-08-24T06:37:57.489Z,35.33
2022-08-24T06:40:26.084Z,34.03
2022-08-24T06:42:54.037Z,33.50
2022-08-24T06:45:22.214Z,33.29
2022-08-24T06:47:49.482Z,32.61
2022-08-24T06:50:17.025Z,32.28
2022-08-24T06:52:45.278Z,32.39
2022-08-24T06:55:12.540Z,32.81
2022-08-24T06:57:39.968Z,33.29
2022-08-24T07:00:10.002Z,33.34
2022-08-24T07:02:38.779Z,33.33
2022-08-24T07:05:06.680Z,32.48
2022-08-24T07:07:35.001Z,32.69
2022-08-24T07:10:02.321Z,32.22
2022-08-24T07:12:30.220Z,32.50
2022-08-24T07:14:57.679Z,32.48
2022-08-24T07:17:25.069Z,32.69
2022-08-24T07:19:52.359Z,31.70
2022-08-24T07:22:19.678Z,31.91
2022-08-24T07:24:47.027Z,31.10
2022-08-24T07:27:14.525Z,31.31
2022-08-24T07:29:52.854Z,31.92
2022-08-24T07:32:23.674Z,31.83
2022-08-24T07:34:51.095Z,31.52
2022-08-24T07:37:18.432Z,30.57
2022-08-24T07:39:45.833Z,30.49
2022-08-24T07:42:17.357Z,30.52
2022-08-24T07:44:46.794Z,29.74
2022-08-24T07:47:36.999Z,30.50
2022-08-24T07:50:01.990Z,30.39
2022-08-24T07:52:29.453Z,30.28
2022-08-24T07:54:56.753Z,29.44
2022-08-24T07:57:24.776Z,29.63
2022-08-24T07:59:52.031Z,28.72
2022-08-24T08:02:19.667Z,29.29
2022-08-24T08:04:47.137Z,28.80
2022-08-24T08:07:15.124Z,29.76
2022-08-24T08:09:42.770Z,30.26
2022-08-24T08:12:11.018Z,29.83
2022-08-24T08:14:38.622Z,29.71
2022-08-24T08:17:07.429Z,28.59
2022-08-24T08:19:34.971Z,28.60
2022-08-24T08:22:20.956Z,28.34
2022-08-24T08:24:48.215Z,28.34
2022-08-24T08:27:16.381Z,28.48
2022-08-24T08:29:43.932Z,28.70
2022-08-24T08:32:14.637Z,28.97
2022-08-24T08:34:42.155Z,28.76
2022-08-24T08:37:09.922Z,28.11
2022-08-24T08:39:37.342Z,27.96
2022-08-24T08:42:07.519Z,27.48
2022-08-24T08:44:41.815Z,27.03
2022-08-24T08:47:27.407Z,26.42
2022-08-24T08:50:13.665Z,26.26
2022-08-24T08:52:53.831Z,25.94
2022-08-24T08:55:34.023Z,25.48
2022-08-24T08:58:26.212Z,24.06
2022-08-24T09:01:24.309Z,23.65
2022-08-24T09:04:06.391Z,22.66
2022-08-24T09:06:55.392Z,21.23
2022-08-24T09:09:41.423Z,21.44
2022-08-24T09:12:15.485Z,20.86
2022-08-24T09:15:34.090Z,20.60
2022-08-24T09:18:26.112Z,20.85
2022-08-24T09:21:33.580Z,20.22
2022-08-24T09:24:42.408Z,19.80
2022-08-24T09:27:33.918Z,20.32
2022-08-24T09:30:18.521Z,19.76
2022-08-24T09:33:20.605Z,20.16
2022-08-24T09:35:58.638Z,19.37
2022-08-24T09:38:50.566Z,19.49
2022-08-24T09:41:50.889Z,19.50
2022-08-24T09:44:36.142Z,19.46
2022-08-24T09:47:31.166Z,19.24
2022-08-24T09:50:20.035Z,19.31
2022-08-24T09:53:00.039Z,19.08
2022-08-24T09:55:41.019Z,18.80
2022-08-24T09:58:17.567Z,19.17
2022-08-24T10:00:56.930Z,19.27
2022-08-24T10:03:53.368Z,18.60
2022-08-24T10:06:23.471Z,18.73
2022-08-24T10:09:09.154Z,19.37
2022-08-24T10:11:51.841Z,19.22
2022-08-24T10:14:37.937Z,19.02
2022-08-24T10:17:19.179Z,19.22
2022-08-24T10:19:54.721Z,19.06
2022-08-24T10:22:25.416Z,18.52
2022-08-24T10:25:03.587Z,18.81
2022-08-24T10:27:43.145Z,18.77
2022-08-24T10:30:35.383Z,18.35
2022-08-24T10:33:14.667Z,18.42
2022-08-24T10:36:00.141Z,18.50
2022-08-24T10:39:12.218Z,17.92
2022-08-24T10:42:44.495Z,18.21
2022-08-24T10:45:32.703Z,19.08
2022-08-24T10:48:12.456Z,19.18
2022-08-24T10:50:59.645Z,18.64
2022-08-24T10:53:28.568Z,18.00
2022-08-24T10:56:16.881Z,18.62
2022-08-24T10:59:19.055Z,18.75
2022-08-24T11:02:01.389Z,18.55
2022-08-24T11:04:30.355Z,18.02
2022-08-24T11:07:18.030Z,18.44
2022-08-24T11:09:53.215Z,18.16
2022-08-24T11:12:27.263Z,18.43
2022-08-24T11:14:56.999Z,18.91
2022-08-24T11:17:26.498Z,17.87
2022-08-24T11:19:53.852Z,18.23
2022-08-24T11:22:56.651Z,18.03
2022-08-24T11:25:28.939Z,18.23
2022-08-24T11:28:10.771Z,17.89
2022-08-24T11:30:38.880Z,17.92
2022-08-24T11:33:26.059Z,18.11
2022-08-24T11:35:53.506Z,18.04
2022-08-24T11:38:31.591Z,17.72
2022-08-24T11:41:29.652Z,17.13
2022-08-24T11:44:32.063Z,17.77
2022-08-24T11:47:44.361Z,18.83
2022-08-24T11:50:36.088Z,18.55
2022-08-24T11:53:12.245Z,17.41
2022-08-24T11:56:01.811Z,17.80
2022-08-24T11:58:38.492Z,17.48
2022-08-24T12:01:12.607Z,17.75
2022-08-24T12:03:52.688Z,17.99
2022-08-24T12:06:32.371Z,17.55
2022-08-24T12:09:48.604Z,17.54
2022-08-24T12:12:24.992Z,17.54
2022-08-24T12:15:03.329Z,17.73
2022-08-24T12:17:30.878Z,17.58
2022-08-24T12:20:27.331Z,17.39
2022-08-24T12:22:57.482Z,17.57
2022-08-24T12:25:43.945Z,17.58
2022-08-24T12:28:22.864Z,17.45
2022-08-24T12:30:50.641Z,17.29
2022-08-24T12:33:18.253Z,17.71
2022-08-24T12:35:47.459Z,17.92
2022-08-24T12:38:20.031Z,17.65
2022-08-24T12:40:56.517Z,17.26
2022-08-24T12:43:35.296Z,17.73
2022-08-24T12:46:02.659Z,18.37
2022-08-24T12:48:56.414Z,17.78
2022-08-24T12:51:32.905Z,17.49
2022-08-24T12:54:18.582Z,17.43
2022-08-24T12:57:06.810Z,17.18
2022-08-24T13:00:13.287Z,17.42
2022-08-24T13:02:48.429Z,18.11
2022-08-24T13:05:17.376Z,17.38
2022-08-24T13:07:46.717Z,17.38
2022-08-24T13:10:35.362Z,17.78
2022-08-24T13:13:08.337Z,18.04
2022-08-24T13:15:35.539Z,17.89
2022-08-24T13:18:09.377Z,17.75
2022-08-24T13:20:43.178Z,17.98
2022-08-24T13:23:11.111Z,18.04
2022-08-24T13:25:47.126Z,18.14
2022-08-24T13:28:23.077Z,17.79
2022-08-24T13:31:05.951Z,18.01
2022-08-24T13:33:42.154Z,17.92
2022-08-24T13:36:28.856Z,18.44
2022-08-24T13:39:25.009Z,18.38
2022-08-24T13:42:27.856Z,18.34
2022-08-24T13:45:32.283Z,18.36
2022-08-24T13:48:08.376Z,18.42
2022-08-24T13:50:49.180Z,18.52
2022-08-24T13:53:42.328Z,18.24
2022-08-24T13:56:18.878Z,18.41
2022-08-24T13:59:14.548Z,18.52
2022-08-24T14:01:55.758Z,18.40
2022-08-24T14:04:26.244Z,18.80
2022-08-24T14:07:12.338Z,18.53
2022-08-24T14:09:57.169Z,18.67
2022-08-24T14:12:31.035Z,18.60
2022-08-24T14:15:29.086Z,18.56
2022-08-24T14:18:16.818Z,18.95
2022-08-24T14:21:11.084Z,18.70
2022-08-24T14:23:45.017Z,18.48
2022-08-24T14:26:34.304Z,19.01
2022-08-24T14:29:17.804Z,18.94
2022-08-24T14:32:11.796Z,18.54
2022-08-24T14:34:40.986Z,18.99
2022-08-24T14:37:14.205Z,18.93
2022-08-24T14:39:50.122Z,18.87
2022-08-24T14:42:37.455Z,18.94
2022-08-24T14:45:40.141Z,18.71
2022-08-24T14:48:41.164Z,18.92
2022-08-24T14:51:22.321Z,19.12
2022-08-24T14:54:15.498Z,19.82
2022-08-24T14:57:17.685Z,19.78
2022-08-24T14:59:58.557Z,20.21
2022-08-24T15:02:44.145Z,19.77
2022-08-24T15:05:29.524Z,19.71
2022-08-24T15:07:59.382Z,19.02
2022-08-24T15:10:44.494Z,19.93
2022-08-24T15:13:36.314Z,19.68
2022-08-24T15:16:35.693Z,20.19
2022-08-24T15:19:27.119Z,20.32
2022-08-24T15:22:01.076Z,20.32
2022-08-24T15:25:05.987Z,19.74
2022-08-24T15:27:59.007Z,19.93
2022-08-24T15:30:30.279Z,20.17
2022-08-24T15:33:19.669Z,20.57
2022-08-24T15:35:52.399Z,20.85
2022-08-24T15:38:23.605Z,20.82
2022-08-24T15:40:53.398Z,21.38
2022-08-24T15:43:20.841Z,21.93
2022-08-24T15:45:51.280Z,21.86
2022-08-24T15:48:20.758Z,22.02
2022-08-24T15:50:48.365Z,22.06
2022-08-24T15:53:39.067Z,22.56
2022-08-24T15:56:25.809Z,22.73
2022-08-24T15:58:53.170Z,22.64
2022-08-24T16:01:43.631Z,23.03
2022-08-24T16:04:35.007Z,22.85
2022-08-24T16:07:02.462Z,23.08
2022-08-24T16:09:39.788Z,23.43
2022-08-24T16:12:07.183Z,23.14
2022-08-24T16:14:41.000Z,23.16
2022-08-24T16:17:39.116Z,23.28
2022-08-24T16:20:10.615Z,23.66
2022-08-24T16:22:40.577Z,23.41
2022-08-24T16:25:13.933Z,23.43
2022-08-24T16:28:09.271Z,24.83
2022-08-24T16:31:00.900Z,23.78
2022-08-24T16:33:43.011Z,24.20
2022-08-24T16:36:14.367Z,24.18
2022-08-24T16:38:46.991Z,24.11
2022-08-24T16:41:14.452Z,25.04
2022-08-24T16:43:41.819Z,24.61
2022-08-24T16:46:10.433Z,24.36
2022-08-24T16:48:38.662Z,24.19
2022-08-24T16:51:06.101Z,24.24
2022-08-24T16:53:34.581Z,24.59
2022-08-24T16:56:04.321Z,25.03
2022-08-24T16:58:33.733Z,24.81
2022-08-24T17:01:02.149Z,25.56
2022-08-24T17:03:29.566Z,24.78
2022-08-24T17:05:57.123Z,24.74
2022-08-24T17:08:25.142Z,24.42
2022-08-24T17:10:53.004Z,24.66
2022-08-24T17:13:48.004Z,24.75
2022-08-24T17:16:09.706Z,24.92
2022-08-24T17:18:37.070Z,24.37
2022-08-24T17:21:06.158Z,24.72
2022-08-24T17:23:34.150Z,24.80
2022-08-24T17:26:01.613Z,24.88
2022-08-24T17:28:29.335Z,25.20
2022-08-24T17:30:56.641Z,25.38
2022-08-24T17:33:24.097Z,25.01
2022-08-24T17:35:51.926Z,25.29
2022-08-24T17:38:19.399Z,25.52
2022-08-24T17:40:46.945Z,25.30
2022-08-24T17:43:14.612Z,25.36
2022-08-24T17:45:42.069Z,25.19
2022-08-24T17:48:09.636Z,25.35
2022-08-24T17:50:40.940Z,25.59
2022-08-24T17:53:09.035Z,25.65
2022-08-24T17:55:36.451Z,25.27
2022-08-24T17:58:03.756Z,25.34
2022-08-24T18:00:31.480Z,25.42
2022-08-24T18:02:59.342Z,25.92
2022-08-24T18:05:26.671Z,25.71
2022-08-24T18:07:54.929Z,25.44
2022-08-24T18:10:25.820Z,25.53
2022-08-24T18:12:53.376Z,25.91
2022-08-24T18:15:21.829Z,26.00
2022-08-24T18:17:59.903Z,26.46
2022-08-24T18:20:30.104Z,26.10
2022-08-24T18:22:58.019Z,26.29
2022-08-24T18:25:25.965Z,26.40
2022-08-24T18:27:54.647Z,26.35
2022-08-24T18:30:28.833Z,26.07
2022-08-24T18:32:56.552Z,26.27
2022-08-24T18:35:24.233Z,26.30
2022-08-24T18:37:51.632Z,26.27
2022-08-24T18:40:21.225Z,26.19
2022-08-24T18:42:50.750Z,26.61
2022-08-24T18:45:18.321Z,26.95
2022-08-24T18:47:53.321Z,26.61
2022-08-24T18:50:21.486Z,26.28
2022-08-24T18:52:48.835Z,26.78
2022-08-24T18:55:16.561Z,26.91
2022-08-24T18:57:43.847Z,26.71
2022-08-24T19:00:11.898Z,27.37
2022-08-24T19:02:40.723Z,27.60
2022-08-24T19:05:11.197Z,27.40
2022-08-24T19:07:43.551Z,28.05
2022-08-24T19:10:11.988Z,27.46
2022-08-24T19:12:42.368Z,27.40
2022-08-24T19:15:34.566Z,27.46
2022-08-24T19:17:58.907Z,27.71
2022-08-24T19:20:27.150Z,27.79
2022-08-24T19:23:00.014Z,28.28
2022-08-24T19:25:27.489Z,28.15
2022-08-24T19:27:58.627Z,28.75
2022-08-24T19:30:28.059Z,28.23
2022-08-24T19:32:56.016Z,28.62
2022-08-24T19:35:23.420Z,28.67
2022-08-24T19:37:50.823Z,28.76
2022-08-24T19:40:18.429Z,28.78
2022-08-24T19:42:50.889Z,29.05
2022-08-24T19:45:39.803Z,28.92
2022-08-24T19:48:07.143Z,28.86
2022-08-24T19:50:35.998Z,28.63
2022-08-24T19:53:05.122Z,29.44
2022-08-24T19:55:32.853Z,29.63
2022-08-24T19:58:20.089Z,29.18
2022-08-24T20:00:56.615Z,29.28
2022-08-24T20:03:24.498Z,30.31
2022-08-24T20:05:51.903Z,30.03
2022-08-24T20:08:20.496Z,29.76
2022-08-24T20:10:48.166Z,29.96
2022-08-24T20:13:15.641Z,30.58
2022-08-24T20:15:44.191Z,29.86
2022-08-24T20:18:11.533Z,29.93
2022-08-24T20:20:38.811Z,30.75
2022-08-24T20:23:07.291Z,29.86
2022-08-24T20:25:35.596Z,29.74
2022-08-24T20:28:27.741Z,30.73
2022-08-24T20:30:51.943Z,30.22
2022-08-24T20:33:21.255Z,30.63
2022-08-24T20:35:48.591Z,30.25
2022-08-24T20:38:16.798Z,31.15
2022-08-24T20:40:44.809Z,30.99
2022-08-24T20:43:12.626Z,30.45
2022-08-24T20:45:41.306Z,31.04
2022-08-24T20:48:12.035Z,30.76
2022-08-24T20:50:43.437Z,30.53
2022-08-24T20:53:11.570Z,31.25
2022-08-24T20:55:39.655Z,30.52
2022-08-24T20:58:06.976Z,31.08
2022-08-24T21:00:34.517Z,30.34
2022-08-24T21:03:04.050Z,31.40
2022-08-24T21:05:31.551Z,30.75
2022-08-24T21:07:59.272Z,31.25
2022-08-24T21:10:27.796Z,31.29
2022-08-24T21:12:56.555Z,31.24
2022-08-24T21:15:23.886Z,31.20
2022-08-24T21:17:51.196Z,30.95
2022-08-24T21:20:20.247Z,31.36
2022-08-24T21:22:47.705Z,31.34
2022-08-24T21:25:15.174Z,31.35
2022-08-24T21:27:44.202Z,31.26
2022-08-24T21:30:14.121Z,31.64
2022-08-24T21:32:59.980Z,31.57
2022-08-24T21:35:27.432Z,31.78
2022-08-24T21:37:54.714Z,31.87
2022-08-24T21:40:23.352Z,31.83
2022-08-24T21:42:50.882Z,31.91
2022-08-24T21:45:19.164Z,31.62
2022-08-24T21:47:46.611Z,32.10
2022-08-24T21:50:14.297Z,32.23
2022-08-24T21:52:41.695Z,31.99
2022-08-24T21:55:14.217Z,32.14
2022-08-24T21:57:42.695Z,32.58
2022-08-24T22:00:13.674Z,32.50
2022-08-24T22:02:42.224Z,32.23
2022-08-24T22:05:09.849Z,33.24
2022-08-24T22:07:37.322Z,32.58
2022-08-24T22:10:05.590Z,32.82
2022-08-24T22:12:34.545Z,32.35
2022-08-24T22:15:03.601Z,32.25
2022-08-24T22:17:31.106Z,32.16
2022-08-24T22:19:58.439Z,32.42
2022-08-24T22:22:25.924Z,32.97
2022-08-24T22:24:53.699Z,33.02
2022-08-24T22:27:21.024Z,32.75
2022-08-24T22:29:52.948Z,32.56
2022-08-24T22:32:20.274Z,32.56
2022-08-24T22:34:47.634Z,33.29
2022-08-24T22:37:14.926Z,32.88
2022-08-24T22:39:42.216Z,33.11
2022-08-24T22:42:09.714Z,33.23
2022-08-24T22:44:37.812Z,33.50
2022-08-24T22:47:11.968Z,33.12
2022-08-24T22:49:43.572Z,33.27
2022-08-24T22:52:12.098Z,32.92
2022-08-24T22:54:39.521Z,33.08
2022-08-24T22:57:06.925Z,33.67
2022-08-24T22:59:39.560Z,33.68
2022-08-24T23:02:09.323Z,38.23
2022-08-24T23:04:37.967Z,43.65
2022-08-24T23:07:05.485Z,37.45
2022-08-24T23:09:44.102Z,44.30
2022-08-24T23:12:19.802Z,50.34
2022-08-24T23:14:47.669Z,41.37
2022-08-24T23:17:15.041Z,42.25
2022-08-24T23:20:00.908Z,42.68
2022-08-24T23:22:31.747Z,47.12
2022-08-24T23:25:00.044Z,41.66
2022-08-24T23:27:27.714Z,41.52
2022-08-24T23:30:05.309Z,39.38
2022-08-24T23:32:33.747Z,41.05
2022-08-24T23:35:01.113Z,43.33
2022-08-24T23:37:28.396Z,41.06
2022-08-24T23:39:55.805Z,42.92
2022-08-24T23:42:23.107Z,42.61
2022-08-24T23:44:51.090Z,43.57
2022-08-24T23:47:18.351Z,43.48
2022-08-24T23:49:45.951Z,40.01
2022-08-24T23:52:25.899Z,43.33
2022-08-24T23:55:20.510Z,40.58
2022-08-24T23:57:44.716Z,42.06
